Prairie Du Sac, Wisconsin
Current Conditions -  °F | °C
As of 3:30 AM on Thursday 18 Dec 2014 (Local Time) from KC29 Reporting Station
Clear Clear  
Wind Chill: -8°   Ceiling: Unl
Heat Index: -8°   Visibility: 10mi
Dew Point: -10°   Wind: 3mph
Humidity: 84%   Direction: 310°NW
Pressure: 30.27"   Gusts: NA
Location:  43.29°N, 89.72°W
Report Text: KC29 180930Z AUTO 31003KT 10SM CLR M07/M10 A3027 RMK AO1 T10751098
Loading
Personal Weather Stations






























Interactive Weather Map New forecast layout! Learn more

10-Day Weather Forecast

Advertisements
Track Severe Weather on mobile